createdAt,value
2022-12-03T08:32:39.390Z,93441.00
2022-12-03T08:32:50.678Z,93440.00
2022-12-03T08:33:02.208Z,93441.00
2022-12-03T08:33:13.497Z,93440.00
2022-12-03T08:33:25.039Z,93440.00
2022-12-03T08:33:36.370Z,93440.00
2022-12-03T08:33:47.883Z,93440.00
2022-12-03T08:33:59.156Z,93438.00
2022-12-03T08:34:10.696Z,93443.00
2022-12-03T08:34:21.974Z,93441.00
2022-12-03T08:34:33.503Z,93441.00
2022-12-03T08:34:44.771Z,93441.00
2022-12-03T08:34:56.376Z,93441.00
2022-12-03T08:35:07.736Z,93441.00
2022-12-03T08:35:19.255Z,93441.00
2022-12-03T08:35:30.525Z,93443.00
2022-12-03T08:35:42.057Z,93440.00
2022-12-03T08:35:53.325Z,93440.00
2022-12-03T08:36:04.861Z,93441.00
2022-12-03T08:36:16.145Z,93440.00
2022-12-03T08:36:27.669Z,93440.00
2022-12-03T08:36:38.945Z,93436.00
2022-12-03T08:36:50.479Z,93440.00
2022-12-03T08:37:01.747Z,93440.00
2022-12-03T08:37:13.278Z,93438.00
2022-12-03T08:37:24.552Z,93438.00
2022-12-03T08:37:36.084Z,93438.00
2022-12-03T08:37:47.418Z,93436.00
2022-12-03T08:37:58.959Z,93436.00
2022-12-03T08:38:10.231Z,93436.00
2022-12-03T08:38:21.751Z,93436.00
2022-12-03T08:38:33.006Z,93432.00
2022-12-03T08:38:44.527Z,93436.00
2022-12-03T08:38:55.812Z,93432.00
2022-12-03T08:39:07.349Z,93432.00
2022-12-03T08:39:18.620Z,93434.00
2022-12-03T08:39:30.157Z,93430.00
2022-12-03T08:39:41.440Z,93432.00
2022-12-03T08:39:52.981Z,93430.00
2022-12-03T08:40:04.242Z,93436.00
2022-12-03T08:40:15.775Z,93436.00
2022-12-03T08:40:27.062Z,93434.00
2022-12-03T08:40:38.596Z,93434.00
2022-12-03T08:40:49.868Z,93438.00
2022-12-03T08:41:01.409Z,93436.00
2022-12-03T08:41:12.690Z,93432.00
2022-12-03T08:41:24.227Z,93436.00
2022-12-03T08:41:35.523Z,93434.00
2022-12-03T08:41:47.081Z,93434.00
2022-12-03T08:41:58.365Z,93434.00
2022-12-03T08:42:13.700Z,93436.00
2022-12-03T08:42:21.082Z,93434.00
2022-12-03T08:42:32.363Z,93434.00
2022-12-03T08:42:43.891Z,93434.00
2022-12-03T08:42:55.216Z,93434.00
2022-12-03T08:43:06.745Z,93436.00
2022-12-03T08:43:18.014Z,93432.00
2022-12-03T08:43:29.550Z,93434.00
2022-12-03T08:43:40.831Z,93434.00
2022-12-03T08:43:52.373Z,93436.00
2022-12-03T08:44:03.670Z,93436.00
2022-12-03T08:44:15.198Z,93440.00
2022-12-03T08:44:26.493Z,93438.00
2022-12-03T08:44:38.027Z,93436.00
2022-12-03T08:44:49.304Z,93438.00
2022-12-03T08:45:00.844Z,93438.00
2022-12-03T08:45:12.132Z,93438.00
2022-12-03T08:45:23.679Z,93438.00
2022-12-03T08:45:34.984Z,93438.00
2022-12-03T08:45:46.570Z,93438.00
2022-12-03T08:45:57.979Z,93440.00
2022-12-03T08:46:09.631Z,93438.00
2022-12-03T08:46:21.054Z,93440.00
2022-12-03T08:46:32.616Z,93440.00
2022-12-03T08:46:43.913Z,93438.00
2022-12-03T08:46:55.445Z,93441.00
2022-12-03T08:47:06.721Z,93440.00
2022-12-03T08:47:18.262Z,93440.00
2022-12-03T08:47:29.535Z,93441.00
2022-12-03T08:47:41.092Z,93440.00
2022-12-03T08:47:52.358Z,93440.00
2022-12-03T08:48:03.898Z,93440.00
2022-12-03T08:48:15.174Z,93443.00
2022-12-03T08:48:26.709Z,93441.00
2022-12-03T08:48:38.002Z,93441.00
2022-12-03T08:48:49.841Z,93443.00
2022-12-03T08:49:01.131Z,93443.00
2022-12-03T08:49:12.651Z,93443.00
2022-12-03T08:49:23.928Z,93445.00
2022-12-03T08:49:35.466Z,93445.00
2022-12-03T08:49:46.758Z,93445.00
2022-12-03T08:49:58.394Z,93445.00
2022-12-03T08:50:09.670Z,93445.00
2022-12-03T08:50:21.203Z,93443.00
2022-12-03T08:50:32.490Z,93445.00
2022-12-03T08:50:44.035Z,93443.00
2022-12-03T08:50:55.310Z,93445.00
2022-12-03T08:51:06.839Z,93443.00
2022-12-03T08:51:18.115Z,93443.00
2022-12-03T08:51:29.651Z,93445.00
2022-12-03T08:51:40.932Z,93445.00
2022-12-03T08:51:52.541Z,93443.00
2022-12-03T08:52:03.902Z,93445.00
2022-12-03T08:52:15.430Z,93441.00
2022-12-03T08:52:26.715Z,93441.00
2022-12-03T08:52:38.238Z,93443.00
2022-12-03T08:52:49.503Z,93443.00
2022-12-03T08:53:01.034Z,93441.00
2022-12-03T08:53:12.338Z,93443.00
2022-12-03T08:53:23.865Z,93441.00
2022-12-03T08:53:35.121Z,93440.00
2022-12-03T08:53:46.661Z,93441.00
2022-12-03T08:54:01.573Z,93440.00
2022-12-03T08:54:09.286Z,93440.00
2022-12-03T08:54:20.561Z,93440.00
2022-12-03T08:54:32.085Z,93440.00
2022-12-03T08:54:43.375Z,93440.00
2022-12-03T08:54:55.312Z,93441.00
2022-12-03T08:55:07.196Z,93441.00
2022-12-03T08:55:18.482Z,93440.00
2022-12-03T08:55:30.047Z,93440.00
2022-12-03T08:55:41.395Z,93440.00
2022-12-03T08:55:53.028Z,93440.00
2022-12-03T08:56:04.332Z,93440.00
2022-12-03T08:56:15.866Z,93440.00
2022-12-03T08:56:27.156Z,93438.00
2022-12-03T08:56:38.693Z,93436.00
2022-12-03T08:56:49.953Z,93436.00
2022-12-03T08:57:01.493Z,93436.00
2022-12-03T08:57:12.759Z,93436.00
2022-12-03T08:57:24.280Z,93432.00
2022-12-03T08:57:35.659Z,93434.00
2022-12-03T08:57:47.202Z,93430.00
2022-12-03T08:57:58.470Z,93430.00
2022-12-03T08:58:10.010Z,93430.00
2022-12-03T08:58:21.331Z,93430.00
2022-12-03T08:58:32.869Z,93430.00
2022-12-03T08:58:44.155Z,93430.00
2022-12-03T08:58:55.688Z,93430.00
2022-12-03T08:59:06.956Z,93428.00
2022-12-03T08:59:18.505Z,93428.00
2022-12-03T08:59:29.778Z,93426.00
2022-12-03T08:59:45.304Z,93424.00
2022-12-03T08:59:52.735Z,93426.00
2022-12-03T09:00:04.011Z,93426.00
2022-12-03T09:00:15.567Z,93428.00
2022-12-03T09:00:26.851Z,93428.00
2022-12-03T09:00:38.471Z,93430.00
2022-12-03T09:00:49.817Z,93426.00
2022-12-03T09:01:01.401Z,93426.00
2022-12-03T09:01:12.802Z,93426.00
2022-12-03T09:01:24.449Z,93428.00
2022-12-03T09:01:35.871Z,93424.00
2022-12-03T09:01:47.623Z,93426.00
2022-12-03T09:01:58.962Z,93426.00
2022-12-03T09:02:10.516Z,93428.00
2022-12-03T09:02:21.785Z,93428.00
2022-12-03T09:02:33.309Z,93428.00
2022-12-03T09:02:44.609Z,93426.00
2022-12-03T09:02:56.140Z,93428.00
2022-12-03T09:03:07.411Z,93428.00
2022-12-03T09:03:18.935Z,93428.00
2022-12-03T09:03:30.259Z,93426.00
2022-12-03T09:03:41.849Z,93430.00
2022-12-03T09:03:53.179Z,93430.00
2022-12-03T09:04:04.786Z,93430.00
2022-12-03T09:04:16.222Z,93432.00
2022-12-03T09:04:27.935Z,93430.00
2022-12-03T09:04:39.359Z,93434.00
2022-12-03T09:04:51.134Z,93434.00
2022-12-03T09:05:02.474Z,93434.00
2022-12-03T09:05:13.998Z,93432.00
2022-12-03T09:05:25.273Z,93436.00
2022-12-03T09:05:36.798Z,93438.00
2022-12-03T09:05:48.063Z,93438.00
2022-12-03T09:05:59.589Z,93438.00
2022-12-03T09:06:10.920Z,93440.00
2022-12-03T09:06:22.449Z,93438.00
2022-12-03T09:06:33.731Z,93438.00
2022-12-03T09:06:45.268Z,93440.00
2022-12-03T09:06:56.544Z,93438.00
2022-12-03T09:07:08.089Z,93441.00
2022-12-03T09:07:19.355Z,93440.00
2022-12-03T09:07:30.913Z,93441.00
2022-12-03T09:07:42.301Z,93441.00
2022-12-03T09:07:53.986Z,93440.00
2022-12-03T09:08:05.393Z,93443.00
2022-12-03T09:08:17.124Z,93443.00
2022-12-03T09:08:28.570Z,93443.00
2022-12-03T09:08:40.139Z,93443.00
2022-12-03T09:08:51.449Z,93443.00
2022-12-03T09:09:06.764Z,93443.00
2022-12-03T09:09:14.060Z,93443.00
2022-12-03T09:09:25.344Z,93443.00
2022-12-03T09:09:36.890Z,93445.00
2022-12-03T09:09:48.169Z,93443.00
2022-12-03T09:09:59.709Z,93445.00
2022-12-03T09:10:10.987Z,93445.00
2022-12-03T09:10:22.511Z,93443.00
2022-12-03T09:10:33.791Z,93443.00
2022-12-03T09:10:45.350Z,93445.00
2022-12-03T09:10:56.626Z,93447.00
2022-12-03T09:11:08.163Z,93449.00
2022-12-03T09:11:19.441Z,93451.00
2022-12-03T09:11:30.984Z,93449.00
2022-12-03T09:11:42.244Z,93447.00
2022-12-03T09:11:53.767Z,93449.00
2022-12-03T09:12:05.022Z,93447.00
2022-12-03T09:12:16.555Z,93449.00
2022-12-03T09:12:27.845Z,93449.00
2022-12-03T09:12:39.383Z,93447.00
2022-12-03T09:12:50.655Z,93449.00
2022-12-03T09:13:02.173Z,93449.00
2022-12-03T09:13:13.439Z,93449.00
2022-12-03T09:13:24.975Z,93447.00
2022-12-03T09:13:36.259Z,93447.00
2022-12-03T09:13:47.834Z,93449.00
2022-12-03T09:13:59.126Z,93449.00
2022-12-03T09:14:16.717Z,93447.00
2022-12-03T09:14:22.590Z,93447.00
2022-12-03T09:14:33.869Z,93445.00
2022-12-03T09:14:45.547Z,93445.00
2022-12-03T09:14:56.984Z,93445.00
2022-12-03T09:15:08.568Z,93443.00
2022-12-03T09:15:19.839Z,93443.00
2022-12-03T09:15:31.368Z,93445.00
2022-12-03T09:15:42.621Z,93443.00
2022-12-03T09:15:54.156Z,93443.00
2022-12-03T09:16:05.557Z,93440.00
2022-12-03T09:16:17.212Z,93441.00
2022-12-03T09:16:28.582Z,93441.00
2022-12-03T09:16:40.261Z,93445.00
2022-12-03T09:16:51.669Z,93445.00
2022-12-03T09:17:11.457Z,93443.00
2022-12-03T09:17:14.054Z,93441.00
2022-12-03T09:17:25.330Z,93445.00
2022-12-03T09:17:36.864Z,93441.00
2022-12-03T09:17:48.154Z,93440.00
2022-12-03T09:17:59.680Z,93441.00
2022-12-03T09:18:10.972Z,93441.00
2022-12-03T09:18:22.510Z,93443.00
2022-12-03T09:18:33.785Z,93443.00
2022-12-03T09:18:45.329Z,93443.00
2022-12-03T09:18:56.647Z,93443.00
2022-12-03T09:19:08.182Z,93441.00
2022-12-03T09:19:19.462Z,93445.00
2022-12-03T09:19:31.160Z,93443.00
2022-12-03T09:19:45.712Z,93445.00
2022-12-03T09:19:53.366Z,93447.00
2022-12-03T09:20:04.661Z,93443.00
2022-12-03T09:20:16.212Z,93445.00
2022-12-03T09:20:27.476Z,93445.00
2022-12-03T09:20:39.038Z,93443.00
2022-12-03T09:20:50.315Z,93447.00
2022-12-03T09:21:01.843Z,93447.00
2022-12-03T09:21:13.111Z,93449.00
2022-12-03T09:21:24.647Z,93447.00
2022-12-03T09:21:35.921Z,93447.00
2022-12-03T09:21:47.461Z,93449.00
2022-12-03T09:21:58.753Z,93449.00
2022-12-03T09:22:10.281Z,93453.00
2022-12-03T09:22:21.541Z,93455.00
2022-12-03T09:22:33.068Z,93453.00
2022-12-03T09:22:44.355Z,93451.00
2022-12-03T09:22:55.898Z,93457.00
2022-12-03T09:23:07.175Z,93455.00
2022-12-03T09:23:18.716Z,93457.00
2022-12-03T09:23:29.991Z,93457.00
2022-12-03T09:23:41.527Z,93457.00
2022-12-03T09:23:52.805Z,93455.00
2022-12-03T09:24:04.379Z,93457.00
2022-12-03T09:24:15.650Z,93455.00
2022-12-03T09:24:27.178Z,93455.00
2022-12-03T09:24:38.457Z,93459.00
2022-12-03T09:24:49.994Z,93457.00
2022-12-03T09:25:01.274Z,93457.00
2022-12-03T09:25:12.806Z,93455.00
2022-12-03T09:25:24.088Z,93455.00
2022-12-03T09:25:35.631Z,93455.00
2022-12-03T09:25:46.934Z,93455.00
2022-12-03T09:25:58.467Z,93455.00
2022-12-03T09:26:09.758Z,93457.00
2022-12-03T09:26:21.287Z,93453.00
2022-12-03T09:26:32.546Z,93459.00
2022-12-03T09:26:44.067Z,93455.00
2022-12-03T09:26:55.342Z,93453.00
2022-12-03T09:27:06.879Z,93453.00
2022-12-03T09:27:18.142Z,93455.00
2022-12-03T09:27:29.653Z,93453.00
2022-12-03T09:27:40.917Z,93455.00
2022-12-03T09:27:52.452Z,93453.00
2022-12-03T09:28:03.739Z,93455.00
2022-12-03T09:28:15.264Z,93451.00
2022-12-03T09:28:26.538Z,93451.00
2022-12-03T09:28:38.072Z,93457.00
2022-12-03T09:28:49.337Z,93457.00
2022-12-03T09:29:00.865Z,93455.00
2022-12-03T09:29:12.905Z,93459.00
2022-12-03T09:29:22.256Z,93457.00
2022-12-03T09:29:33.793Z,93457.00
2022-12-03T09:29:45.066Z,93457.00
2022-12-03T09:29:56.591Z,93457.00
2022-12-03T09:30:07.874Z,93459.00
2022-12-03T09:30:19.416Z,93459.00
2022-12-03T09:30:30.696Z,93459.00
2022-12-03T09:30:42.235Z,93457.00
2022-12-03T09:30:53.519Z,93457.00
2022-12-03T09:31:05.054Z,93457.00
2022-12-03T09:31:16.421Z,93459.00
2022-12-03T09:31:28.033Z,93457.00
2022-12-03T09:31:39.444Z,93459.00
2022-12-03T09:31:51.188Z,93459.00
2022-12-03T09:32:02.718Z,93459.00
2022-12-03T09:32:18.287Z,93459.00
2022-12-03T09:32:25.966Z,93459.00
2022-12-03T09:32:37.305Z,93461.00
2022-12-03T09:32:48.849Z,93459.00
2022-12-03T09:33:00.195Z,93457.00
2022-12-03T09:33:11.751Z,93459.00
2022-12-03T09:33:23.025Z,93459.00
2022-12-03T09:33:34.567Z,93459.00
2022-12-03T09:33:45.854Z,93459.00
2022-12-03T09:33:57.392Z,93459.00
2022-12-03T09:34:08.666Z,93459.00
2022-12-03T09:34:20.420Z,93459.00
2022-12-03T09:34:31.688Z,93457.00
2022-12-03T09:34:43.212Z,93459.00
2022-12-03T09:34:54.809Z,93457.00
2022-12-03T09:35:06.581Z,93457.00
2022-12-03T09:35:17.867Z,93461.00
2022-12-03T09:35:29.410Z,93459.00
2022-12-03T09:35:40.688Z,93459.00
2022-12-03T09:35:52.221Z,93457.00
2022-12-03T09:36:03.501Z,93457.00
2022-12-03T09:36:15.047Z,93461.00
2022-12-03T09:36:26.320Z,93463.00
2022-12-03T09:36:37.844Z,93461.00
2022-12-03T09:36:49.131Z,93461.00
2022-12-03T09:37:00.664Z,93461.00
2022-12-03T09:37:11.922Z,93463.00
2022-12-03T09:37:23.440Z,93463.00
2022-12-03T09:37:34.719Z,93461.00
2022-12-03T09:37:46.250Z,93463.00
2022-12-03T09:37:57.539Z,93463.00
2022-12-03T09:38:09.075Z,93461.00
2022-12-03T09:38:20.352Z,93461.00
2022-12-03T09:38:31.876Z,93463.00
2022-12-03T09:38:46.258Z,93463.00
2022-12-03T09:38:55.061Z,93461.00
2022-12-03T09:39:06.326Z,93461.00
2022-12-03T09:39:17.853Z,93463.00
2022-12-03T09:39:29.178Z,93461.00
2022-12-03T09:39:40.698Z,93465.00
2022-12-03T09:39:51.981Z,93463.00
2022-12-03T09:40:03.535Z,93461.00
2022-12-03T09:40:14.810Z,93465.00
2022-12-03T09:40:26.351Z,93463.00
2022-12-03T09:40:37.631Z,93465.00
2022-12-03T09:40:49.148Z,93463.00
2022-12-03T09:41:00.418Z,93465.00
2022-12-03T09:41:11.930Z,93465.00
2022-12-03T09:41:23.202Z,93463.00
2022-12-03T09:41:34.752Z,93465.00
2022-12-03T09:41:46.032Z,93467.00
2022-12-03T09:41:57.562Z,93467.00
2022-12-03T09:42:08.837Z,93465.00
2022-12-03T09:42:20.384Z,93465.00
2022-12-03T09:42:31.653Z,93463.00
2022-12-03T09:42:43.176Z,93465.00
2022-12-03T09:42:54.441Z,93465.00
2022-12-03T09:43:06.004Z,93467.00
2022-12-03T09:43:17.289Z,93465.00
2022-12-03T09:43:49.405Z,93465.00
2022-12-03T09:44:03.468Z,93465.00
2022-12-03T09:44:05.739Z,93465.00
2022-12-03T09:44:13.705Z,93465.00
2022-12-03T09:44:17.997Z,93467.00
2022-12-03T09:44:25.320Z,93467.00
2022-12-03T09:44:36.651Z,93465.00
2022-12-03T09:44:48.193Z,93467.00
2022-12-03T09:44:59.473Z,93467.00
2022-12-03T09:45:11.000Z,93471.00
2022-12-03T09:45:22.265Z,93471.00
2022-12-03T09:45:33.931Z,93469.00
2022-12-03T09:45:45.316Z,93467.00
2022-12-03T09:45:56.963Z,93469.00
2022-12-03T09:46:08.246Z,93469.00
2022-12-03T09:46:19.898Z,93469.00
2022-12-03T09:46:31.414Z,93469.00
2022-12-03T09:46:42.998Z,93469.00
2022-12-03T09:46:54.278Z,93471.00
2022-12-03T09:47:05.811Z,93469.00
2022-12-03T09:47:17.097Z,93469.00
2022-12-03T09:47:28.621Z,93467.00
2022-12-03T09:47:39.885Z,93469.00
2022-12-03T09:47:51.416Z,93469.00
2022-12-03T09:48:02.716Z,93467.00
2022-12-03T09:48:14.266Z,93467.00
2022-12-03T09:48:25.539Z,93465.00
2022-12-03T09:48:37.072Z,93467.00
2022-12-03T09:48:48.347Z,93469.00
2022-12-03T09:48:59.873Z,93465.00
2022-12-03T09:49:15.506Z,93465.00
2022-12-03T09:49:23.061Z,93465.00
2022-12-03T09:49:34.333Z,93467.00
2022-12-03T09:49:45.900Z,93469.00
2022-12-03T09:49:57.300Z,93467.00
2022-12-03T09:50:08.879Z,93465.00
2022-12-03T09:50:20.177Z,93463.00
2022-12-03T09:50:31.798Z,93465.00
2022-12-03T09:50:43.083Z,93467.00
2022-12-03T09:50:54.619Z,93467.00
2022-12-03T09:51:05.898Z,93465.00
2022-12-03T09:51:17.433Z,93467.00
2022-12-03T09:51:28.694Z,93467.00
2022-12-03T09:51:40.236Z,93467.00
2022-12-03T09:51:51.548Z,93467.00
2022-12-03T09:52:03.236Z,93465.00
2022-12-03T09:52:14.495Z,93465.00
2022-12-03T09:52:26.069Z,93469.00
2022-12-03T09:52:36.559Z,93465.00
2022-12-03T09:52:48.079Z,93465.00
2022-12-03T09:52:59.349Z,93467.00
2022-12-03T09:53:10.979Z,93465.00
2022-12-03T09:53:22.261Z,93465.00
2022-12-03T09:53:39.635Z,93467.00
2022-12-03T09:53:45.710Z,93465.00
2022-12-03T09:53:56.985Z,93465.00
2022-12-03T09:54:08.525Z,93465.00
2022-12-03T09:54:19.789Z,93465.00
2022-12-03T09:54:31.313Z,93469.00
2022-12-03T09:54:47.089Z,93467.00
2022-12-03T09:54:55.046Z,93463.00
2022-12-03T09:55:06.807Z,93465.00
2022-12-03T09:55:18.073Z,93465.00
2022-12-03T09:55:29.640Z,93465.00
2022-12-03T09:55:40.934Z,93465.00
2022-12-03T09:55:52.471Z,93465.00
2022-12-03T09:56:03.749Z,93465.00
2022-12-03T09:56:15.289Z,93463.00
2022-12-03T09:56:26.570Z,93461.00
2022-12-03T09:56:38.106Z,93461.00
2022-12-03T09:56:49.396Z,93463.00
2022-12-03T09:57:00.941Z,93461.00
2022-12-03T09:57:12.386Z,93459.00
2022-12-03T09:57:23.918Z,93459.00
2022-12-03T09:57:35.196Z,93461.00
2022-12-03T09:57:46.740Z,93463.00
2022-12-03T09:57:58.017Z,93461.00
2022-12-03T09:58:09.546Z,93459.00
2022-12-03T09:58:20.836Z,93459.00
2022-12-03T09:58:34.832Z,93459.00
2022-12-03T09:58:44.296Z,93457.00
2022-12-03T09:58:55.815Z,93459.00
2022-12-03T09:59:07.093Z,93461.00
2022-12-03T09:59:18.611Z,93457.00
2022-12-03T09:59:29.880Z,93459.00
2022-12-03T09:59:41.414Z,93459.00
2022-12-03T09:59:53.034Z,93459.00
2022-12-03T10:00:04.751Z,93457.00
2022-12-03T10:00:16.021Z,93459.00
2022-12-03T10:00:27.558Z,93459.00
2022-12-03T10:00:38.849Z,93459.00
2022-12-03T10:00:50.630Z,93459.00
2022-12-03T10:01:02.062Z,93459.00
2022-12-03T10:01:13.723Z,93459.00
2022-12-03T10:01:29.902Z,93459.00
2022-12-03T10:01:37.055Z,93459.00
2022-12-03T10:01:48.485Z,93461.00
2022-12-03T10:02:00.315Z,93461.00
2022-12-03T10:02:11.726Z,93459.00
2022-12-03T10:02:23.248Z,93461.00
2022-12-03T10:02:34.504Z,93459.00
2022-12-03T10:02:46.033Z,93461.00
2022-12-03T10:02:57.319Z,93461.00
2022-12-03T10:03:08.880Z,93463.00
2022-12-03T10:03:22.124Z,93461.00
2022-12-03T10:03:32.079Z,93463.00
2022-12-03T10:03:43.352Z,93463.00
2022-12-03T10:03:54.920Z,93461.00
2022-12-03T10:04:06.282Z,93461.00
2022-12-03T10:04:17.950Z,93461.00
2022-12-03T10:04:29.395Z,93461.00
2022-12-03T10:04:41.027Z,93459.00
2022-12-03T10:04:52.899Z,93459.00
2022-12-03T10:05:04.713Z,93459.00
2022-12-03T10:05:16.078Z,93459.00
2022-12-03T10:05:27.636Z,93465.00
2022-12-03T10:05:41.523Z,93463.00
2022-12-03T10:05:50.833Z,93461.00
2022-12-03T10:06:02.116Z,93465.00
2022-12-03T10:06:13.672Z,93461.00
2022-12-03T10:06:24.965Z,93463.00
2022-12-03T10:06:38.836Z,93461.00
2022-12-03T10:06:48.436Z,93461.00
2022-12-03T10:06:59.726Z,93461.00
2022-12-03T10:07:11.266Z,93461.00
2022-12-03T10:07:22.553Z,93463.00
2022-12-03T10:07:34.160Z,93461.00
2022-12-03T10:07:45.529Z,93461.00
2022-12-03T10:07:57.185Z,93459.00
2022-12-03T10:08:08.589Z,93457.00
2022-12-03T10:08:20.216Z,93457.00
2022-12-03T10:08:32.441Z,93459.00
2022-12-03T10:08:41.794Z,93459.00
2022-12-03T10:08:53.354Z,93457.00
2022-12-03T10:09:04.636Z,93457.00
2022-12-03T10:09:16.168Z,93459.00
2022-12-03T10:09:27.434Z,93459.00
2022-12-03T10:09:38.972Z,93455.00
2022-12-03T10:09:50.258Z,93457.00
2022-12-03T10:10:01.776Z,93455.00
2022-12-03T10:10:13.037Z,93455.00
2022-12-03T10:10:24.620Z,93457.00
2022-12-03T10:10:35.885Z,93457.00
2022-12-03T10:10:47.420Z,93457.00
2022-12-03T10:10:58.700Z,93455.00
2022-12-03T10:11:10.233Z,93457.00
2022-12-03T10:11:21.503Z,93457.00
2022-12-03T10:11:33.034Z,93457.00
2022-12-03T10:11:44.303Z,93457.00
2022-12-03T10:11:55.814Z,93457.00
2022-12-03T10:12:07.083Z,93455.00
2022-12-03T10:12:18.619Z,93457.00
2022-12-03T10:12:29.897Z,93457.00
2022-12-03T10:12:41.421Z,93461.00
2022-12-03T10:12:52.706Z,93457.00
2022-12-03T10:13:04.240Z,93461.00
2022-12-03T10:13:15.518Z,93459.00
2022-12-03T10:13:27.058Z,93459.00
2022-12-03T10:13:38.330Z,93459.00
2022-12-03T10:13:49.874Z,93459.00
2022-12-03T10:14:01.156Z,93461.00
2022-12-03T10:14:12.693Z,93461.00
2022-12-03T10:14:23.980Z,93459.00
2022-12-03T10:14:35.511Z,93461.00
2022-12-03T10:14:46.782Z,93461.00
2022-12-03T10:14:58.330Z,93461.00
2022-12-03T10:15:09.619Z,93463.00
2022-12-03T10:15:21.158Z,93463.00
2022-12-03T10:15:32.480Z,93461.00
2022-12-03T10:15:44.019Z,93461.00
2022-12-03T10:15:55.304Z,93461.00
2022-12-03T10:16:06.829Z,93465.00
2022-12-03T10:16:18.184Z,93463.00
2022-12-03T10:16:29.842Z,93465.00
2022-12-03T10:16:41.217Z,93465.00
2022-12-03T10:16:52.902Z,93463.00
2022-12-03T10:17:04.263Z,93465.00
2022-12-03T10:17:15.904Z,93463.00
2022-12-03T10:17:27.209Z,93461.00
2022-12-03T10:17:38.744Z,93465.00
2022-12-03T10:17:50.018Z,93463.00
2022-12-03T10:18:01.557Z,93459.00
2022-12-03T10:18:12.854Z,93463.00
2022-12-03T10:18:24.386Z,93463.00
2022-12-03T10:18:41.285Z,93461.00
2022-12-03T10:18:47.596Z,93463.00
2022-12-03T10:18:58.853Z,93463.00
2022-12-03T10:19:10.376Z,93463.00
2022-12-03T10:19:21.640Z,93461.00
2022-12-03T10:19:33.155Z,93463.00
2022-12-03T10:19:44.427Z,93463.00
2022-12-03T10:19:56.294Z,93461.00
2022-12-03T10:20:07.713Z,93461.00
2022-12-03T10:20:19.364Z,93463.00
2022-12-03T10:20:30.754Z,93463.00
2022-12-03T10:20:42.337Z,93463.00
2022-12-03T10:20:53.607Z,93463.00
2022-12-03T10:21:05.124Z,93461.00
2022-12-03T10:21:16.390Z,93459.00
2022-12-03T10:21:27.924Z,93463.00
2022-12-03T10:21:39.243Z,93459.00
2022-12-03T10:21:50.800Z,93463.00
2022-12-03T10:22:02.076Z,93463.00
2022-12-03T10:22:13.620Z,93461.00
2022-12-03T10:22:24.894Z,93461.00
2022-12-03T10:22:36.429Z,93459.00
2022-12-03T10:22:47.703Z,93461.00
2022-12-03T10:22:59.237Z,93463.00
2022-12-03T10:23:10.526Z,93459.00
2022-12-03T10:23:22.062Z,93461.00
2022-12-03T10:23:33.340Z,93459.00
2022-12-03T10:23:44.883Z,93457.00
2022-12-03T10:23:56.164Z,93461.00
2022-12-03T10:24:07.702Z,93459.00
2022-12-03T10:24:18.979Z,93459.00
2022-12-03T10:24:30.513Z,93459.00
2022-12-03T10:24:41.781Z,93459.00
2022-12-03T10:24:53.510Z,93457.00
2022-12-03T10:25:04.897Z,93457.00
2022-12-03T10:25:16.429Z,93461.00
2022-12-03T10:25:27.699Z,93459.00
2022-12-03T10:25:39.227Z,93459.00
2022-12-03T10:25:50.536Z,93459.00
2022-12-03T10:26:02.074Z,93459.00
2022-12-03T10:26:13.358Z,93457.00
2022-12-03T10:26:24.912Z,93457.00
2022-12-03T10:26:36.187Z,93457.00
2022-12-03T10:26:47.702Z,93455.00
2022-12-03T10:26:58.965Z,93457.00
2022-12-03T10:27:10.498Z,93457.00
2022-12-03T10:27:21.796Z,93457.00
2022-12-03T10:27:33.334Z,93457.00
2022-12-03T10:27:44.591Z,93457.00
2022-12-03T10:27:56.099Z,93455.00
2022-12-03T10:28:07.368Z,93455.00
2022-12-03T10:28:18.896Z,93455.00
2022-12-03T10:28:30.175Z,93457.00
2022-12-03T10:28:41.703Z,93455.00
2022-12-03T10:28:52.959Z,93455.00
2022-12-03T10:29:04.472Z,93453.00
2022-12-03T10:29:15.729Z,93455.00
2022-12-03T10:29:33.213Z,93453.00
2022-12-03T10:29:39.175Z,93455.00
2022-12-03T10:29:50.520Z,93453.00
2022-12-03T10:30:02.139Z,93451.00
2022-12-03T10:30:13.435Z,93457.00
2022-12-03T10:30:25.206Z,93455.00
2022-12-03T10:30:36.633Z,93455.00
2022-12-03T10:30:48.303Z,93453.00
2022-12-03T10:30:59.748Z,93453.00
2022-12-03T10:31:11.431Z,93455.00
2022-12-03T10:31:22.803Z,93453.00
2022-12-03T10:31:34.379Z,93453.00
2022-12-03T10:31:45.674Z,93453.00
2022-12-03T10:31:57.185Z,93453.00
2022-12-03T10:32:08.445Z,93451.00
2022-12-03T10:32:19.990Z,93449.00
2022-12-03T10:32:31.271Z,93453.00
2022-12-03T10:32:42.809Z,93451.00
2022-12-03T10:32:54.097Z,93451.00
2022-12-03T10:33:05.632Z,93449.00
2022-12-03T10:33:19.131Z,93451.00
2022-12-03T10:33:28.535Z,93449.00
2022-12-03T10:33:40.065Z,93449.00
2022-12-03T10:33:51.352Z,93447.00
2022-12-03T10:34:02.904Z,93451.00
2022-12-03T10:34:14.189Z,93449.00
2022-12-03T10:34:25.716Z,93449.00
2022-12-03T10:34:36.989Z,93447.00
2022-12-03T10:34:48.505Z,93447.00
2022-12-03T10:34:59.780Z,93445.00
2022-12-03T10:35:11.323Z,93449.00
2022-12-03T10:35:22.588Z,93447.00
2022-12-03T10:35:34.126Z,93445.00
2022-12-03T10:35:45.402Z,93445.00
2022-12-03T10:35:56.931Z,93443.00
2022-12-03T10:36:08.288Z,93445.00
2022-12-03T10:36:19.803Z,93443.00
2022-12-03T10:36:31.071Z,93443.00
2022-12-03T10:36:42.598Z,93441.00
2022-12-03T10:36:53.864Z,93441.00
2022-12-03T10:37:05.389Z,93441.00
2022-12-03T10:37:16.666Z,93440.00
2022-12-03T10:37:28.199Z,93438.00
2022-12-03T10:37:39.473Z,93440.00
2022-12-03T10:37:51.026Z,93440.00
2022-12-03T10:38:02.321Z,93440.00
2022-12-03T10:38:13.852Z,93438.00
2022-12-03T10:38:25.133Z,93438.00
2022-12-03T10:38:36.668Z,93440.00
2022-12-03T10:38:47.944Z,93438.00
2022-12-03T10:38:59.474Z,93438.00
2022-12-03T10:39:10.758Z,93438.00
2022-12-03T10:39:22.302Z,93436.00
2022-12-03T10:39:33.571Z,93436.00
2022-12-03T10:39:45.093Z,93436.00
2022-12-03T10:39:56.781Z,93436.00
2022-12-03T10:40:08.415Z,93438.00
2022-12-03T10:40:19.713Z,93436.00
2022-12-03T10:40:31.241Z,93436.00
2022-12-03T10:40:42.518Z,93434.00
2022-12-03T10:40:54.064Z,93432.00
2022-12-03T10:41:05.334Z,93436.00
2022-12-03T10:41:16.905Z,93436.00
2022-12-03T10:41:28.170Z,93434.00
2022-12-03T10:41:39.697Z,93436.00
2022-12-03T10:41:50.969Z,93434.00
2022-12-03T10:42:02.516Z,93438.00
2022-12-03T10:42:13.782Z,93438.00
2022-12-03T10:42:25.386Z,93434.00
2022-12-03T10:42:36.654Z,93436.00
2022-12-03T10:42:48.173Z,93434.00
2022-12-03T10:42:59.448Z,93438.00
2022-12-03T10:43:10.974Z,93436.00
2022-12-03T10:43:22.249Z,93436.00
2022-12-03T10:43:33.785Z,93436.00
2022-12-03T10:43:45.066Z,93434.00
2022-12-03T10:43:56.602Z,93434.00
2022-12-03T10:44:07.877Z,93432.00
2022-12-03T10:44:19.471Z,93434.00
2022-12-03T10:44:30.760Z,93432.00
2022-12-03T10:44:42.303Z,93432.00
2022-12-03T10:44:53.881Z,93434.00
2022-12-03T10:45:05.544Z,93430.00
2022-12-03T10:45:16.822Z,93430.00
2022-12-03T10:45:28.376Z,93434.00
2022-12-03T10:45:39.659Z,93432.00
2022-12-03T10:45:51.286Z,93430.00
2022-12-03T10:46:04.472Z,93430.00
2022-12-03T10:46:14.021Z,93428.00
2022-12-03T10:46:25.868Z,93430.00
2022-12-03T10:46:37.406Z,93430.00
2022-12-03T10:46:49.154Z,93430.00